Terminal Aerodrome Forecast
Issued by NWS

Home | Current Version | Previous Version | Graphics & Text | Print | Product List | Glossary On
Versions: 1 2 3 4 5 6 7 8 9 10 11 12 13 14
000
FTUS42 KMHX 201600 AAA
TAFISO
TAF AMD
KISO 201608Z 2016/2112 02012G20KT 6SM -DZ BKN015 BKN025
     FM201800 02015G25KT P6SM OVC025
     FM210500 36008G15KT P6SM BKN020
      AMD LTD TO CLD VIS AND WIND=

USA.gov is the U.S. government's official web portal to all federal, state and local government web resources and services.